sensor_id;sensor_type;location;lat;lon;timestamp;P1;durP1;ratioP1;P2;durP2;ratioP2
8803;SDS011;4438;50.890;4.726;2023-05-16T00:00:42;12.07;;;4.00;;
8803;SDS011;4438;50.890;4.726;2023-05-16T00:03:08;10.77;;;3.90;;
8803;SDS011;4438;50.890;4.726;2023-05-16T00:05:36;9.97;;;3.57;;
8803;SDS011;4438;50.890;4.726;2023-05-16T00:08:03;13.63;;;3.80;;
8803;SDS011;4438;50.890;4.726;2023-05-16T00:10:29;9.47;;;3.13;;
8803;SDS011;4438;50.890;4.726;2023-05-16T00:12:55;10.07;;;3.50;;
8803;SDS011;4438;50.890;4.726;2023-05-16T00:15:21;11.23;;;3.30;;
8803;SDS011;4438;50.890;4.726;2023-05-16T00:17:49;12.07;;;3.57;;
8803;SDS011;4438;50.890;4.726;2023-05-16T00:20:16;13.63;;;4.10;;
8803;SDS011;4438;50.890;4.726;2023-05-16T00:22:47;9.87;;;3.40;;
8803;SDS011;4438;50.890;4.726;2023-05-16T00:25:13;8.53;;;2.70;;
8803;SDS011;4438;50.890;4.726;2023-05-16T00:27:39;12.23;;;3.43;;
8803;SDS011;4438;50.890;4.726;2023-05-16T00:30:05;8.90;;;3.23;;
8803;SDS011;4438;50.890;4.726;2023-05-16T00:32:34;10.63;;;3.80;;
8803;SDS011;4438;50.890;4.726;2023-05-16T00:35:00;11.87;;;4.07;;
8803;SDS011;4438;50.890;4.726;2023-05-16T00:37:27;9.73;;;3.30;;
8803;SDS011;4438;50.890;4.726;2023-05-16T00:39:53;10.40;;;3.07;;
8803;SDS011;4438;50.890;4.726;2023-05-16T00:42:19;15.13;;;4.27;;
8803;SDS011;4438;50.890;4.726;2023-05-16T00:44:46;10.90;;;3.50;;
8803;SDS011;4438;50.890;4.726;2023-05-16T00:47:12;10.40;;;3.60;;
8803;SDS011;4438;50.890;4.726;2023-05-16T00:49:38;7.60;;;2.80;;
8803;SDS011;4438;50.890;4.726;2023-05-16T00:52:04;8.97;;;3.53;;
8803;SDS011;4438;50.890;4.726;2023-05-16T00:54:31;12.27;;;3.50;;
8803;SDS011;4438;50.890;4.726;2023-05-16T00:56:58;8.97;;;3.27;;
8803;SDS011;4438;50.890;4.726;2023-05-16T00:59:25;9.07;;;3.23;;
8803;SDS011;4438;50.890;4.726;2023-05-16T01:01:51;13.73;;;3.87;;
8803;SDS011;4438;50.890;4.726;2023-05-16T01:04:17;9.43;;;3.20;;
8803;SDS011;4438;50.890;4.726;2023-05-16T01:06:44;12.60;;;3.20;;
8803;SDS011;4438;50.890;4.726;2023-05-16T01:09:10;9.30;;;3.70;;
8803;SDS011;4438;50.890;4.726;2023-05-16T01:11:41;8.73;;;3.00;;
8803;SDS011;4438;50.890;4.726;2023-05-16T01:16:54;11.80;;;3.53;;
8803;SDS011;4438;50.890;4.726;2023-05-16T01:19:29;8.57;;;3.17;;
8803;SDS011;4438;50.890;4.726;2023-05-16T01:22:01;12.63;;;3.63;;
8803;SDS011;4438;50.890;4.726;2023-05-16T01:24:34;6.97;;;2.77;;
8803;SDS011;4438;50.890;4.726;2023-05-16T01:27:03;8.60;;;2.60;;
8803;SDS011;4438;50.890;4.726;2023-05-16T01:29:30;12.70;;;3.40;;
8803;SDS011;4438;50.890;4.726;2023-05-16T01:31:56;15.20;;;3.73;;
8803;SDS011;4438;50.890;4.726;2023-05-16T01:34:23;9.97;;;3.43;;
8803;SDS011;4438;50.890;4.726;2023-05-16T01:36:56;10.43;;;3.07;;
8803;SDS011;4438;50.890;4.726;2023-05-16T01:41:54;7.47;;;2.90;;
8803;SDS011;4438;50.890;4.726;2023-05-16T01:44:33;10.77;;;3.70;;
8803;SDS011;4438;50.890;4.726;2023-05-16T01:47:00;13.43;;;3.77;;
8803;SDS011;4438;50.890;4.726;2023-05-16T01:51:55;10.97;;;3.57;;
8803;SDS011;4438;50.890;4.726;2023-05-16T01:54:23;10.27;;;3.80;;
8803;SDS011;4438;50.890;4.726;2023-05-16T01:56:53;9.60;;;2.87;;
8803;SDS011;4438;50.890;4.726;2023-05-16T01:59:20;8.63;;;3.30;;
8803;SDS011;4438;50.890;4.726;2023-05-16T02:01:47;8.67;;;2.83;;
8803;SDS011;4438;50.890;4.726;2023-05-16T02:04:13;8.93;;;3.10;;
8803;SDS011;4438;50.890;4.726;2023-05-16T02:06:42;10.40;;;3.07;;
8803;SDS011;4438;50.890;4.726;2023-05-16T02:09:09;10.77;;;3.23;;
8803;SDS011;4438;50.890;4.726;2023-05-16T02:11:35;7.37;;;2.73;;
8803;SDS011;4438;50.890;4.726;2023-05-16T02:14:01;10.77;;;3.57;;
8803;SDS011;4438;50.890;4.726;2023-05-16T02:16:28;10.17;;;3.27;;
8803;SDS011;4438;50.890;4.726;2023-05-16T02:18:55;8.80;;;3.13;;
8803;SDS011;4438;50.890;4.726;2023-05-16T02:21:21;7.90;;;2.70;;
8803;SDS011;4438;50.890;4.726;2023-05-16T02:23:47;8.50;;;3.20;;
8803;SDS011;4438;50.890;4.726;2023-05-16T02:26:14;9.30;;;3.07;;
8803;SDS011;4438;50.890;4.726;2023-05-16T02:28:40;7.83;;;2.77;;
8803;SDS011;4438;50.890;4.726;2023-05-16T02:31:06;7.80;;;2.80;;
8803;SDS011;4438;50.890;4.726;2023-05-16T02:33:32;8.90;;;3.20;;
8803;SDS011;4438;50.890;4.726;2023-05-16T02:35:58;8.70;;;3.50;;
8803;SDS011;4438;50.890;4.726;2023-05-16T02:38:24;10.30;;;2.90;;
8803;SDS011;4438;50.890;4.726;2023-05-16T02:40:50;7.30;;;2.83;;
8803;SDS011;4438;50.890;4.726;2023-05-16T02:43:17;10.53;;;3.03;;
8803;SDS011;4438;50.890;4.726;2023-05-16T02:45:43;7.13;;;2.47;;
8803;SDS011;4438;50.890;4.726;2023-05-16T02:48:09;8.33;;;3.20;;
8803;SDS011;4438;50.890;4.726;2023-05-16T02:50:36;9.53;;;2.93;;
8803;SDS011;4438;50.890;4.726;2023-05-16T02:53:04;9.07;;;2.77;;
8803;SDS011;4438;50.890;4.726;2023-05-16T02:55:30;9.67;;;3.60;;
8803;SDS011;4438;50.890;4.726;2023-05-16T02:57:56;11.27;;;3.27;;
8803;SDS011;4438;50.890;4.726;2023-05-16T03:00:22;5.33;;;3.03;;
8803;SDS011;4438;50.890;4.726;2023-05-16T03:02:48;7.63;;;2.70;;
8803;SDS011;4438;50.890;4.726;2023-05-16T03:05:15;7.03;;;2.67;;
8803;SDS011;4438;50.890;4.726;2023-05-16T03:07:41;8.07;;;2.83;;
8803;SDS011;4438;50.890;4.726;2023-05-16T03:10:07;7.10;;;2.53;;
8803;SDS011;4438;50.890;4.726;2023-05-16T03:12:33;9.00;;;3.30;;
8803;SDS011;4438;50.890;4.726;2023-05-16T03:14:59;7.50;;;2.90;;
8803;SDS011;4438;50.890;4.726;2023-05-16T03:17:25;8.07;;;2.77;;
8803;SDS011;4438;50.890;4.726;2023-05-16T03:19:52;7.80;;;2.63;;
8803;SDS011;4438;50.890;4.726;2023-05-16T03:22:18;6.80;;;3.03;;
8803;SDS011;4438;50.890;4.726;2023-05-16T03:24:44;6.67;;;2.70;;
8803;SDS011;4438;50.890;4.726;2023-05-16T03:27:11;8.13;;;2.83;;
8803;SDS011;4438;50.890;4.726;2023-05-16T03:29:37;9.70;;;3.60;;
8803;SDS011;4438;50.890;4.726;2023-05-16T03:32:03;10.33;;;3.47;;
8803;SDS011;4438;50.890;4.726;2023-05-16T03:34:29;7.00;;;3.03;;
8803;SDS011;4438;50.890;4.726;2023-05-16T03:36:56;8.93;;;3.10;;
8803;SDS011;4438;50.890;4.726;2023-05-16T03:39:22;11.37;;;2.77;;
8803;SDS011;4438;50.890;4.726;2023-05-16T03:41:48;9.97;;;2.93;;
8803;SDS011;4438;50.890;4.726;2023-05-16T03:44:16;7.43;;;2.60;;
8803;SDS011;4438;50.890;4.726;2023-05-16T03:46:42;8.47;;;2.67;;
8803;SDS011;4438;50.890;4.726;2023-05-16T03:49:08;6.30;;;2.40;;
8803;SDS011;4438;50.890;4.726;2023-05-16T03:51:34;6.70;;;2.30;;
8803;SDS011;4438;50.890;4.726;2023-05-16T03:54:00;11.17;;;3.00;;
8803;SDS011;4438;50.890;4.726;2023-05-16T03:56:26;9.10;;;2.87;;
8803;SDS011;4438;50.890;4.726;2023-05-16T03:58:52;6.43;;;2.73;;
8803;SDS011;4438;50.890;4.726;2023-05-16T04:01:18;7.33;;;2.90;;
8803;SDS011;4438;50.890;4.726;2023-05-16T04:03:44;11.00;;;2.83;;
8803;SDS011;4438;50.890;4.726;2023-05-16T04:06:10;6.70;;;2.80;;
8803;SDS011;4438;50.890;4.726;2023-05-16T04:08:36;10.83;;;2.90;;
8803;SDS011;4438;50.890;4.726;2023-05-16T04:11:04;6.17;;;2.57;;
8803;SDS011;4438;50.890;4.726;2023-05-16T04:13:30;8.47;;;2.73;;
8803;SDS011;4438;50.890;4.726;2023-05-16T04:15:56;5.97;;;2.63;;
8803;SDS011;4438;50.890;4.726;2023-05-16T04:18:22;9.87;;;3.20;;
8803;SDS011;4438;50.890;4.726;2023-05-16T04:20:48;8.97;;;3.03;;
8803;SDS011;4438;50.890;4.726;2023-05-16T04:23:14;7.37;;;2.77;;
8803;SDS011;4438;50.890;4.726;2023-05-16T04:25:40;6.50;;;3.10;;
8803;SDS011;4438;50.890;4.726;2023-05-16T04:28:07;8.93;;;3.37;;
8803;SDS011;4438;50.890;4.726;2023-05-16T04:30:33;7.83;;;2.93;;
8803;SDS011;4438;50.890;4.726;2023-05-16T04:32:59;8.90;;;2.90;;
8803;SDS011;4438;50.890;4.726;2023-05-16T04:35:26;6.73;;;2.57;;
8803;SDS011;4438;50.890;4.726;2023-05-16T04:37:52;7.80;;;2.90;;
8803;SDS011;4438;50.890;4.726;2023-05-16T04:40:18;6.20;;;2.80;;
8803;SDS011;4438;50.890;4.726;2023-05-16T04:42:44;5.87;;;2.40;;
8803;SDS011;4438;50.890;4.726;2023-05-16T04:45:10;5.30;;;2.90;;
8803;SDS011;4438;50.890;4.726;2023-05-16T04:47:38;7.97;;;3.30;;
8803;SDS011;4438;50.890;4.726;2023-05-16T04:50:05;5.47;;;2.57;;
8803;SDS011;4438;50.890;4.726;2023-05-16T04:52:33;9.37;;;3.23;;
8803;SDS011;4438;50.890;4.726;2023-05-16T04:54:59;6.83;;;2.83;;
8803;SDS011;4438;50.890;4.726;2023-05-16T04:57:26;6.70;;;2.93;;
8803;SDS011;4438;50.890;4.726;2023-05-16T04:59:52;8.80;;;3.10;;
8803;SDS011;4438;50.890;4.726;2023-05-16T05:02:18;6.93;;;3.17;;
8803;SDS011;4438;50.890;4.726;2023-05-16T05:04:44;7.50;;;3.37;;
8803;SDS011;4438;50.890;4.726;2023-05-16T05:07:11;8.10;;;3.30;;
8803;SDS011;4438;50.890;4.726;2023-05-16T05:09:38;6.17;;;3.20;;
8803;SDS011;4438;50.890;4.726;2023-05-16T05:12:04;10.60;;;3.67;;
8803;SDS011;4438;50.890;4.726;2023-05-16T05:14:31;9.07;;;3.53;;
8803;SDS011;4438;50.890;4.726;2023-05-16T05:16:58;8.77;;;2.93;;
8803;SDS011;4438;50.890;4.726;2023-05-16T05:19:24;9.43;;;3.50;;
8803;SDS011;4438;50.890;4.726;2023-05-16T05:21:50;8.60;;;3.40;;
8803;SDS011;4438;50.890;4.726;2023-05-16T05:24:16;8.27;;;3.53;;
8803;SDS011;4438;50.890;4.726;2023-05-16T05:26:43;11.23;;;3.63;;
8803;SDS011;4438;50.890;4.726;2023-05-16T05:29:09;7.70;;;3.77;;
8803;SDS011;4438;50.890;4.726;2023-05-16T05:31:35;8.53;;;3.43;;
8803;SDS011;4438;50.890;4.726;2023-05-16T05:34:01;10.43;;;3.83;;
8803;SDS011;4438;50.890;4.726;2023-05-16T05:36:28;7.77;;;3.33;;
8803;SDS011;4438;50.890;4.726;2023-05-16T05:38:54;9.77;;;3.30;;
8803;SDS011;4438;50.890;4.726;2023-05-16T05:41:21;6.63;;;3.53;;
8803;SDS011;4438;50.890;4.726;2023-05-16T05:43:47;8.43;;;3.37;;
8803;SDS011;4438;50.890;4.726;2023-05-16T05:46:13;10.33;;;3.40;;
8803;SDS011;4438;50.890;4.726;2023-05-16T05:48:40;8.20;;;3.03;;
8803;SDS011;4438;50.890;4.726;2023-05-16T05:51:07;7.90;;;3.20;;
8803;SDS011;4438;50.890;4.726;2023-05-16T05:53:33;4.73;;;3.23;;
8803;SDS011;4438;50.890;4.726;2023-05-16T05:55:59;7.13;;;3.20;;
8803;SDS011;4438;50.890;4.726;2023-05-16T05:58:25;7.10;;;3.17;;
8803;SDS011;4438;50.890;4.726;2023-05-16T06:00:52;7.00;;;3.03;;
8803;SDS011;4438;50.890;4.726;2023-05-16T06:03:18;8.73;;;3.10;;
8803;SDS011;4438;50.890;4.726;2023-05-16T06:05:45;7.03;;;3.73;;
8803;SDS011;4438;50.890;4.726;2023-05-16T06:08:11;6.80;;;3.00;;
8803;SDS011;4438;50.890;4.726;2023-05-16T06:10:38;5.83;;;2.80;;
8803;SDS011;4438;50.890;4.726;2023-05-16T06:13:04;10.80;;;3.20;;
8803;SDS011;4438;50.890;4.726;2023-05-16T06:15:30;9.67;;;3.20;;
8803;SDS011;4438;50.890;4.726;2023-05-16T06:17:56;5.50;;;2.70;;
8803;SDS011;4438;50.890;4.726;2023-05-16T06:20:22;8.07;;;3.10;;
8803;SDS011;4438;50.890;4.726;2023-05-16T06:22:48;11.93;;;3.03;;
8803;SDS011;4438;50.890;4.726;2023-05-16T06:25:14;8.27;;;3.10;;
8803;SDS011;4438;50.890;4.726;2023-05-16T06:27:40;8.57;;;2.97;;
8803;SDS011;4438;50.890;4.726;2023-05-16T06:30:07;10.10;;;3.27;;
8803;SDS011;4438;50.890;4.726;2023-05-16T06:32:33;6.73;;;2.73;;
8803;SDS011;4438;50.890;4.726;2023-05-16T06:34:59;7.03;;;2.33;;
8803;SDS011;4438;50.890;4.726;2023-05-16T06:37:25;9.77;;;3.00;;
8803;SDS011;4438;50.890;4.726;2023-05-16T06:39:51;10.37;;;2.73;;
8803;SDS011;4438;50.890;4.726;2023-05-16T06:42:17;8.87;;;2.83;;
8803;SDS011;4438;50.890;4.726;2023-05-16T06:44:45;8.13;;;2.80;;
8803;SDS011;4438;50.890;4.726;2023-05-16T06:47:11;12.10;;;3.97;;
8803;SDS011;4438;50.890;4.726;2023-05-16T06:49:37;8.10;;;3.33;;
8803;SDS011;4438;50.890;4.726;2023-05-16T06:52:03;7.27;;;2.97;;
8803;SDS011;4438;50.890;4.726;2023-05-16T06:54:29;7.30;;;2.83;;
8803;SDS011;4438;50.890;4.726;2023-05-16T06:56:56;7.33;;;2.73;;
8803;SDS011;4438;50.890;4.726;2023-05-16T06:59:22;5.70;;;2.20;;
8803;SDS011;4438;50.890;4.726;2023-05-16T07:01:48;7.93;;;2.80;;
8803;SDS011;4438;50.890;4.726;2023-05-16T07:04:15;7.73;;;2.70;;
8803;SDS011;4438;50.890;4.726;2023-05-16T07:06:41;10.80;;;2.80;;
8803;SDS011;4438;50.890;4.726;2023-05-16T07:09:07;10.87;;;2.47;;
8803;SDS011;4438;50.890;4.726;2023-05-16T07:11:33;6.30;;;2.40;;
8803;SDS011;4438;50.890;4.726;2023-05-16T07:14:00;6.90;;;2.20;;
8803;SDS011;4438;50.890;4.726;2023-05-16T07:16:26;8.60;;;2.13;;
8803;SDS011;4438;50.890;4.726;2023-05-16T07:18:52;7.07;;;2.53;;
8803;SDS011;4438;50.890;4.726;2023-05-16T07:21:18;7.80;;;2.30;;
8803;SDS011;4438;50.890;4.726;2023-05-16T07:23:45;7.10;;;2.33;;
8803;SDS011;4438;50.890;4.726;2023-05-16T07:26:11;9.10;;;2.60;;
8803;SDS011;4438;50.890;4.726;2023-05-16T07:28:37;4.83;;;2.13;;
8803;SDS011;4438;50.890;4.726;2023-05-16T07:31:03;7.10;;;2.30;;
8803;SDS011;4438;50.890;4.726;2023-05-16T07:33:30;6.93;;;2.50;;
8803;SDS011;4438;50.890;4.726;2023-05-16T07:35:56;5.60;;;1.90;;
8803;SDS011;4438;50.890;4.726;2023-05-16T07:38:23;5.10;;;2.00;;
8803;SDS011;4438;50.890;4.726;2023-05-16T07:40:49;6.57;;;2.37;;
8803;SDS011;4438;50.890;4.726;2023-05-16T07:43:15;4.10;;;2.10;;
8803;SDS011;4438;50.890;4.726;2023-05-16T07:45:41;4.97;;;1.97;;
8803;SDS011;4438;50.890;4.726;2023-05-16T07:48:07;6.27;;;2.70;;
8803;SDS011;4438;50.890;4.726;2023-05-16T07:50:33;7.37;;;2.00;;
8803;SDS011;4438;50.890;4.726;2023-05-16T07:53:00;6.30;;;1.77;;
8803;SDS011;4438;50.890;4.726;2023-05-16T07:55:26;3.40;;;1.50;;
8803;SDS011;4438;50.890;4.726;2023-05-16T07:57:52;4.77;;;1.77;;
8803;SDS011;4438;50.890;4.726;2023-05-16T08:00:19;5.93;;;2.00;;
8803;SDS011;4438;50.890;4.726;2023-05-16T08:02:45;5.83;;;1.70;;
8803;SDS011;4438;50.890;4.726;2023-05-16T08:05:11;5.73;;;2.10;;
8803;SDS011;4438;50.890;4.726;2023-05-16T08:07:37;6.27;;;1.57;;
8803;SDS011;4438;50.890;4.726;2023-05-16T08:10:04;6.53;;;2.23;;
8803;SDS011;4438;50.890;4.726;2023-05-16T08:12:30;4.80;;;1.80;;
8803;SDS011;4438;50.890;4.726;2023-05-16T08:14:56;7.23;;;2.20;;
8803;SDS011;4438;50.890;4.726;2023-05-16T08:17:22;4.93;;;2.20;;
8803;SDS011;4438;50.890;4.726;2023-05-16T08:19:48;4.77;;;2.00;;
8803;SDS011;4438;50.890;4.726;2023-05-16T08:22:14;4.40;;;2.00;;
8803;SDS011;4438;50.890;4.726;2023-05-16T08:24:40;3.57;;;1.60;;
8803;SDS011;4438;50.890;4.726;2023-05-16T08:27:06;4.97;;;1.70;;
8803;SDS011;4438;50.890;4.726;2023-05-16T08:29:33;7.07;;;2.37;;
8803;SDS011;4438;50.890;4.726;2023-05-16T08:31:59;6.47;;;1.93;;
8803;SDS011;4438;50.890;4.726;2023-05-16T08:34:26;4.63;;;1.80;;
8803;SDS011;4438;50.890;4.726;2023-05-16T08:36:52;3.83;;;1.77;;
8803;SDS011;4438;50.890;4.726;2023-05-16T08:39:18;5.87;;;1.80;;
8803;SDS011;4438;50.890;4.726;2023-05-16T08:41:44;5.37;;;1.93;;
8803;SDS011;4438;50.890;4.726;2023-05-16T08:44:11;3.63;;;1.83;;
8803;SDS011;4438;50.890;4.726;2023-05-16T08:46:44;3.13;;;1.70;;
8803;SDS011;4438;50.890;4.726;2023-05-16T08:49:13;2.87;;;1.57;;
8803;SDS011;4438;50.890;4.726;2023-05-16T08:51:39;5.13;;;2.00;;
8803;SDS011;4438;50.890;4.726;2023-05-16T08:54:07;3.03;;;1.67;;
8803;SDS011;4438;50.890;4.726;2023-05-16T08:56:36;5.40;;;2.00;;
8803;SDS011;4438;50.890;4.726;2023-05-16T08:59:02;4.10;;;1.90;;
8803;SDS011;4438;50.890;4.726;2023-05-16T09:01:29;4.07;;;1.80;;
8803;SDS011;4438;50.890;4.726;2023-05-16T09:03:57;4.77;;;1.97;;
8803;SDS011;4438;50.890;4.726;2023-05-16T09:06:24;4.30;;;1.80;;
8803;SDS011;4438;50.890;4.726;2023-05-16T09:08:50;5.17;;;1.90;;
8803;SDS011;4438;50.890;4.726;2023-05-16T09:11:17;6.10;;;1.90;;
8803;SDS011;4438;50.890;4.726;2023-05-16T09:13:43;4.10;;;1.93;;
8803;SDS011;4438;50.890;4.726;2023-05-16T09:16:10;6.93;;;2.00;;
8803;SDS011;4438;50.890;4.726;2023-05-16T09:18:37;5.53;;;2.30;;
8803;SDS011;4438;50.890;4.726;2023-05-16T09:21:03;6.13;;;2.03;;
8803;SDS011;4438;50.890;4.726;2023-05-16T09:23:30;4.90;;;2.20;;
8803;SDS011;4438;50.890;4.726;2023-05-16T09:25:57;3.30;;;1.90;;
8803;SDS011;4438;50.890;4.726;2023-05-16T09:28:24;5.97;;;2.10;;
8803;SDS011;4438;50.890;4.726;2023-05-16T09:30:51;4.37;;;2.20;;
8803;SDS011;4438;50.890;4.726;2023-05-16T09:33:17;6.10;;;2.50;;
8803;SDS011;4438;50.890;4.726;2023-05-16T09:35:43;2.93;;;2.00;;
8803;SDS011;4438;50.890;4.726;2023-05-16T09:38:13;3.27;;;2.03;;
8803;SDS011;4438;50.890;4.726;2023-05-16T09:40:40;4.53;;;2.20;;
8803;SDS011;4438;50.890;4.726;2023-05-16T09:43:06;5.43;;;1.97;;
8803;SDS011;4438;50.890;4.726;2023-05-16T09:45:33;4.10;;;1.87;;
8803;SDS011;4438;50.890;4.726;2023-05-16T09:48:04;4.37;;;2.10;;
8803;SDS011;4438;50.890;4.726;2023-05-16T09:50:34;3.13;;;2.17;;
8803;SDS011;4438;50.890;4.726;2023-05-16T09:53:01;5.67;;;2.20;;
8803;SDS011;4438;50.890;4.726;2023-05-16T09:55:27;5.63;;;1.90;;
8803;SDS011;4438;50.890;4.726;2023-05-16T09:57:53;3.47;;;1.80;;
8803;SDS011;4438;50.890;4.726;2023-05-16T10:00:20;6.83;;;1.60;;
8803;SDS011;4438;50.890;4.726;2023-05-16T10:02:46;5.10;;;1.90;;
8803;SDS011;4438;50.890;4.726;2023-05-16T10:05:14;3.77;;;2.00;;
8803;SDS011;4438;50.890;4.726;2023-05-16T10:07:41;4.17;;;1.70;;
8803;SDS011;4438;50.890;4.726;2023-05-16T10:10:08;3.67;;;1.80;;
8803;SDS011;4438;50.890;4.726;2023-05-16T10:12:35;3.03;;;1.80;;
8803;SDS011;4438;50.890;4.726;2023-05-16T10:15:03;4.07;;;1.90;;
8803;SDS011;4438;50.890;4.726;2023-05-16T10:17:32;5.57;;;2.20;;
8803;SDS011;4438;50.890;4.726;2023-05-16T10:20:04;4.73;;;2.13;;
8803;SDS011;4438;50.890;4.726;2023-05-16T10:22:34;3.97;;;1.80;;
8803;SDS011;4438;50.890;4.726;2023-05-16T10:27:30;3.57;;;1.93;;
8803;SDS011;4438;50.890;4.726;2023-05-16T10:29:56;4.07;;;2.17;;
8803;SDS011;4438;50.890;4.726;2023-05-16T10:32:23;5.00;;;2.20;;
8803;SDS011;4438;50.890;4.726;2023-05-16T10:34:49;3.20;;;1.40;;
8803;SDS011;4438;50.890;4.726;2023-05-16T10:37:16;3.20;;;1.60;;
8803;SDS011;4438;50.890;4.726;2023-05-16T10:39:42;3.60;;;1.70;;
8803;SDS011;4438;50.890;4.726;2023-05-16T10:42:08;3.47;;;1.60;;
8803;SDS011;4438;50.890;4.726;2023-05-16T10:44:35;3.20;;;1.70;;
8803;SDS011;4438;50.890;4.726;2023-05-16T10:47:03;2.97;;;1.33;;
8803;SDS011;4438;50.890;4.726;2023-05-16T10:49:30;4.50;;;1.50;;
8803;SDS011;4438;50.890;4.726;2023-05-16T10:54:50;2.60;;;1.40;;
8803;SDS011;4438;50.890;4.726;2023-05-16T10:57:21;2.77;;;1.50;;
8803;SDS011;4438;50.890;4.726;2023-05-16T10:59:48;3.50;;;1.60;;
8803;SDS011;4438;50.890;4.726;2023-05-16T11:02:25;2.93;;;1.20;;
8803;SDS011;4438;50.890;4.726;2023-05-16T11:04:53;3.50;;;1.30;;
8803;SDS011;4438;50.890;4.726;2023-05-16T11:07:20;4.27;;;1.60;;
8803;SDS011;4438;50.890;4.726;2023-05-16T11:12:45;3.90;;;1.50;;
8803;SDS011;4438;50.890;4.726;2023-05-16T11:17:44;2.33;;;1.40;;
8803;SDS011;4438;50.890;4.726;2023-05-16T11:20:28;3.07;;;1.67;;
8803;SDS011;4438;50.890;4.726;2023-05-16T11:25:58;3.10;;;1.63;;
8803;SDS011;4438;50.890;4.726;2023-05-16T11:28:25;3.70;;;1.80;;
8803;SDS011;4438;50.890;4.726;2023-05-16T11:30:53;3.03;;;1.50;;
8803;SDS011;4438;50.890;4.726;2023-05-16T11:33:21;2.50;;;1.53;;
8803;SDS011;4438;50.890;4.726;2023-05-16T11:36:06;3.63;;;1.87;;
8803;SDS011;4438;50.890;4.726;2023-05-16T11:38:33;4.30;;;1.77;;
8803;SDS011;4438;50.890;4.726;2023-05-16T11:41:03;3.87;;;2.20;;
8803;SDS011;4438;50.890;4.726;2023-05-16T11:43:37;2.13;;;1.60;;
8803;SDS011;4438;50.890;4.726;2023-05-16T11:46:04;3.53;;;1.70;;
8803;SDS011;4438;50.890;4.726;2023-05-16T11:48:30;2.07;;;1.47;;
8803;SDS011;4438;50.890;4.726;2023-05-16T11:50:56;3.27;;;1.60;;
8803;SDS011;4438;50.890;4.726;2023-05-16T11:53:22;3.20;;;1.43;;
8803;SDS011;4438;50.890;4.726;2023-05-16T11:55:48;3.50;;;1.60;;
8803;SDS011;4438;50.890;4.726;2023-05-16T11:58:17;2.50;;;1.80;;
8803;SDS011;4438;50.890;4.726;2023-05-16T12:00:50;2.97;;;1.60;;
8803;SDS011;4438;50.890;4.726;2023-05-16T12:03:17;3.17;;;1.63;;
8803;SDS011;4438;50.890;4.726;2023-05-16T12:05:51;3.27;;;1.60;;
8803;SDS011;4438;50.890;4.726;2023-05-16T12:08:18;4.20;;;1.53;;
8803;SDS011;4438;50.890;4.726;2023-05-16T12:10:46;4.83;;;1.90;;
8803;SDS011;4438;50.890;4.726;2023-05-16T12:13:12;4.60;;;1.77;;
8803;SDS011;4438;50.890;4.726;2023-05-16T12:15:38;2.93;;;1.67;;
8803;SDS011;4438;50.890;4.726;2023-05-16T12:18:04;3.70;;;1.80;;
8803;SDS011;4438;50.890;4.726;2023-05-16T12:20:31;3.77;;;1.70;;
8803;SDS011;4438;50.890;4.726;2023-05-16T12:22:57;3.43;;;1.67;;
8803;SDS011;4438;50.890;4.726;2023-05-16T12:25:30;3.40;;;1.90;;
8803;SDS011;4438;50.890;4.726;2023-05-16T12:27:57;4.23;;;1.93;;
8803;SDS011;4438;50.890;4.726;2023-05-16T12:30:24;2.80;;;1.57;;
8803;SDS011;4438;50.890;4.726;2023-05-16T12:32:52;3.10;;;1.73;;
8803;SDS011;4438;50.890;4.726;2023-05-16T12:35:18;2.80;;;1.60;;
8803;SDS011;4438;50.890;4.726;2023-05-16T12:37:44;2.73;;;1.70;;
8803;SDS011;4438;50.890;4.726;2023-05-16T12:40:10;3.87;;;2.00;;
8803;SDS011;4438;50.890;4.726;2023-05-16T12:42:37;2.80;;;1.50;;
8803;SDS011;4438;50.890;4.726;2023-05-16T12:45:03;4.17;;;1.70;;
8803;SDS011;4438;50.890;4.726;2023-05-16T12:47:39;4.40;;;1.73;;
8803;SDS011;4438;50.890;4.726;2023-05-16T12:50:09;4.27;;;1.73;;
8803;SDS011;4438;50.890;4.726;2023-05-16T12:52:36;2.73;;;1.73;;
8803;SDS011;4438;50.890;4.726;2023-05-16T12:55:03;3.87;;;1.80;;
8803;SDS011;4438;50.890;4.726;2023-05-16T12:57:29;5.03;;;1.93;;
8803;SDS011;4438;50.890;4.726;2023-05-16T12:59:55;3.67;;;1.77;;
8803;SDS011;4438;50.890;4.726;2023-05-16T13:02:22;2.20;;;1.40;;
8803;SDS011;4438;50.890;4.726;2023-05-16T13:04:48;2.77;;;1.40;;
8803;SDS011;4438;50.890;4.726;2023-05-16T13:07:14;4.23;;;1.70;;
8803;SDS011;4438;50.890;4.726;2023-05-16T13:09:41;3.20;;;1.80;;
8803;SDS011;4438;50.890;4.726;2023-05-16T13:12:08;4.30;;;1.67;;
8803;SDS011;4438;50.890;4.726;2023-05-16T13:14:34;3.57;;;1.70;;
8803;SDS011;4438;50.890;4.726;2023-05-16T13:17:00;1.67;;;1.40;;
8803;SDS011;4438;50.890;4.726;2023-05-16T13:19:27;2.77;;;1.60;;
8803;SDS011;4438;50.890;4.726;2023-05-16T13:21:55;3.33;;;1.50;;
8803;SDS011;4438;50.890;4.726;2023-05-16T13:24:21;2.43;;;1.53;;
8803;SDS011;4438;50.890;4.726;2023-05-16T13:26:47;2.83;;;1.63;;
8803;SDS011;4438;50.890;4.726;2023-05-16T13:29:14;4.00;;;1.70;;
8803;SDS011;4438;50.890;4.726;2023-05-16T13:31:40;3.07;;;1.53;;
8803;SDS011;4438;50.890;4.726;2023-05-16T13:34:06;5.50;;;1.87;;
8803;SDS011;4438;50.890;4.726;2023-05-16T13:36:32;3.67;;;1.67;;
8803;SDS011;4438;50.890;4.726;2023-05-16T13:38:58;3.17;;;1.60;;
8803;SDS011;4438;50.890;4.726;2023-05-16T13:41:24;3.70;;;1.60;;
8803;SDS011;4438;50.890;4.726;2023-05-16T13:43:50;3.17;;;1.90;;
8803;SDS011;4438;50.890;4.726;2023-05-16T13:46:16;2.53;;;1.40;;
8803;SDS011;4438;50.890;4.726;2023-05-16T13:48:42;4.60;;;1.93;;
8803;SDS011;4438;50.890;4.726;2023-05-16T13:51:09;2.73;;;1.40;;
8803;SDS011;4438;50.890;4.726;2023-05-16T13:53:35;4.13;;;1.80;;
8803;SDS011;4438;50.890;4.726;2023-05-16T13:56:03;2.63;;;1.23;;
8803;SDS011;4438;50.890;4.726;2023-05-16T13:58:30;3.97;;;1.53;;
8803;SDS011;4438;50.890;4.726;2023-05-16T14:00:56;3.70;;;1.73;;
8803;SDS011;4438;50.890;4.726;2023-05-16T14:03:22;4.67;;;1.90;;
8803;SDS011;4438;50.890;4.726;2023-05-16T14:05:48;2.87;;;1.80;;
8803;SDS011;4438;50.890;4.726;2023-05-16T14:08:14;3.87;;;1.90;;
8803;SDS011;4438;50.890;4.726;2023-05-16T14:10:40;3.30;;;1.80;;
8803;SDS011;4438;50.890;4.726;2023-05-16T14:13:06;4.07;;;1.73;;
8803;SDS011;4438;50.890;4.726;2023-05-16T14:15:32;4.27;;;1.87;;
8803;SDS011;4438;50.890;4.726;2023-05-16T14:17:58;3.60;;;1.87;;
8803;SDS011;4438;50.890;4.726;2023-05-16T14:20:24;3.13;;;1.90;;
8803;SDS011;4438;50.890;4.726;2023-05-16T14:22:50;3.43;;;1.90;;
8803;SDS011;4438;50.890;4.726;2023-05-16T14:25:16;3.13;;;1.60;;
8803;SDS011;4438;50.890;4.726;2023-05-16T14:27:42;2.10;;;1.60;;
8803;SDS011;4438;50.890;4.726;2023-05-16T14:30:09;3.83;;;1.70;;
8803;SDS011;4438;50.890;4.726;2023-05-16T14:32:35;4.57;;;1.70;;
8803;SDS011;4438;50.890;4.726;2023-05-16T14:35:01;4.77;;;1.90;;
8803;SDS011;4438;50.890;4.726;2023-05-16T14:37:29;4.00;;;1.50;;
8803;SDS011;4438;50.890;4.726;2023-05-16T14:39:55;3.80;;;1.60;;
8803;SDS011;4438;50.890;4.726;2023-05-16T14:42:21;3.93;;;1.80;;
8803;SDS011;4438;50.890;4.726;2023-05-16T14:44:47;2.60;;;1.40;;
8803;SDS011;4438;50.890;4.726;2023-05-16T14:47:13;3.70;;;1.70;;
8803;SDS011;4438;50.890;4.726;2023-05-16T14:49:40;5.40;;;1.70;;
8803;SDS011;4438;50.890;4.726;2023-05-16T14:52:06;3.63;;;1.87;;
8803;SDS011;4438;50.890;4.726;2023-05-16T14:54:32;3.00;;;1.70;;
8803;SDS011;4438;50.890;4.726;2023-05-16T14:56:59;3.30;;;1.60;;
8803;SDS011;4438;50.890;4.726;2023-05-16T14:59:25;2.10;;;1.47;;
8803;SDS011;4438;50.890;4.726;2023-05-16T15:01:52;3.57;;;1.60;;
8803;SDS011;4438;50.890;4.726;2023-05-16T15:04:18;4.40;;;1.53;;
8803;SDS011;4438;50.890;4.726;2023-05-16T15:06:44;4.60;;;1.70;;
8803;SDS011;4438;50.890;4.726;2023-05-16T15:09:10;5.27;;;1.83;;
8803;SDS011;4438;50.890;4.726;2023-05-16T15:11:36;3.03;;;1.60;;
8803;SDS011;4438;50.890;4.726;2023-05-16T15:14:02;3.80;;;1.70;;
8803;SDS011;4438;50.890;4.726;2023-05-16T15:16:29;1.77;;;1.23;;
8803;SDS011;4438;50.890;4.726;2023-05-16T15:18:55;4.00;;;1.60;;
8803;SDS011;4438;50.890;4.726;2023-05-16T15:21:21;4.97;;;1.80;;
8803;SDS011;4438;50.890;4.726;2023-05-16T15:23:47;4.43;;;1.50;;
8803;SDS011;4438;50.890;4.726;2023-05-16T15:26:14;3.70;;;2.00;;
8803;SDS011;4438;50.890;4.726;2023-05-16T15:28:41;3.47;;;1.60;;
8803;SDS011;4438;50.890;4.726;2023-05-16T15:31:07;3.87;;;1.37;;